• Join FlightAware (Why Join?)
  • Login
  • US Flag 
12:27AM EDT


 

Airport Tracker/Info


-or-


 

Live Flight TrackerFlight Track Log ✈ N104HE ✈ 14-Jun-2013 ✈ KHUM - KLAL

Flight Track Log - Related Links

Times and Time Zones

All times are in EDT time to prevent confusion due to time zone crossing. See the N104HE flight status page for this flight to view local times or setup timezone preferences in your user account.

Time Position Orientation Groundspeed Altitude Reporting Facility
EDT Latitude Longitude Course Direction KTS MPH feet Rate Location/Type
10:55AM 29.5811 -90.6833 67° East 46 53 1,200  Level Houston Center
10:55AM 29.5875 -90.6903 317° Northwest 72 83 1,500 900 Climbing Houston Center
10:56AM 29.5983 -90.7114 301° West 86 99 2,400 840 Climbing Houston Center
10:57AM 29.6144 -90.7158 347° North 82 94 2,900 780 Climbing Houston Center
10:57AM 29.6258 -90.7150 North 98 113 3,300 720 Climbing Houston Center
10:58AM 29.6367 -90.7108 18° North 85 98 3,700 840 Climbing Houston Center
10:58AM 29.6375 -90.6883 88° East 96 110 4,200 720 Climbing Houston Center
10:59AM 29.6431 -90.6778 59° Northeast 93 107 4,500 720 Climbing Houston Center
10:59AM 29.6450 -90.6594 83° East 98 113 4,900 720 Climbing Houston Center
11:00AM 29.6517 -90.6467 59° Northeast 100 115 5,300 780 Climbing Houston Center
11:00AM 29.6547 -90.6303 78° East 100 115 5,700 660 Climbing Houston Center
11:01AM 29.6533 -90.4302 67° East  Level FlightAware Approximate
11:01AM 29.6611 -90.6175 60° Northeast 99 114 6,000  Level Houston Center
11:01AM 29.6644 -90.5989 78° East 100 115 6,300 720 Climbing Houston Center
11:02AM 29.6731 -90.5808 61° Northeast 101 116 6,800 660 Climbing Houston Center
11:02AM 29.6739 -90.5675 86° East 105 121 7,000 540 Climbing Houston Center
11:03AM 29.6828 -90.5489 61° Northeast 103 119 7,400 540 Climbing Houston Center
11:03AM 29.6833 -90.5361 87° East 107 123 7,600 540 Climbing Houston Center
11:04AM 29.6931 -90.5069 69° East 106 122 8,100 540 Climbing Houston Center
11:05AM 29.7028 -90.4850 63° Northeast 106 122 8,600 540 Climbing Houston Center
11:05AM 29.7044 -90.4683 83° East 102 117 8,800 360 Climbing Houston Center
11:06AM 29.7119 -90.4556 56° Northeast 103 119 9,000 180 Climbing Houston Center
11:06AM 29.7142 -90.4414 80° East 102 117 9,000  Level Houston Center
11:07AM 29.7217 -90.4222 66° East 105 121 9,000  Level Houston Center
11:08AM 29.7350 -90.3792 70° East 113 130 9,000  Level Houston Center
11:09AM 29.7456 -90.3461 70° East 113 130 9,000  Level Houston Center
11:10AM 29.7486 -90.3300 78° East 109 125 9,000  Level Houston Center
11:10AM 29.7558 -90.3136 63° Northeast 110 127 9,000  Level Houston Center
11:11AM 29.7667 -90.2789 70° East 112 129 9,000  Level Houston Center
11:12AM 29.7772 -90.2442 71° East 114 131 9,000  Level Houston Center
11:13AM 29.7878 -90.2094 71° East 115 132 9,000  Level Houston Center
11:14AM 29.8008 -90.1664 71° East 117 135 9,000  Level Houston Center
11:15AM 29.8117 -90.1308 71° East 118 136 9,000  Level Houston Center
11:16AM 29.8219 -90.0967 71° East 115 132 9,000  Level Houston Center
11:17AM 29.8336 -90.0614 69° East 116 133 9,000  Level Houston Center
11:18AM 29.8439 -90.0256 72° East 118 136 9,000  Level Houston Center
11:20AM 29.8589 -89.9825 68° East 120 138 9,000  Level Houston Center
11:20AM 29.8725 -89.9486 65° Northeast 120 138 9,000  Level Houston Center
11:22AM 29.8878 -89.9119 64° Northeast 119 137 9,000  Level Houston Center
11:23AM 29.9033 -89.8756 64° Northeast 119 137 9,000  Level Houston Center
11:24AM 29.9139 -89.8453 68° East 116 133 9,000  Level Houston Center
11:25AM 29.9300 -89.8039 66° East 117 135 9,000  Level Houston Center
11:26AM 29.9442 -89.7689 65° Northeast 120 138 9,000  Level Houston Center
11:27AM 29.9583 -89.7347 64° Northeast 119 137 9,000  Level Houston Center
11:28AM 29.9708 -89.7006 67° East 117 135 9,000  Level Houston Center
11:29AM 29.9844 -89.6664 65° Northeast 117 135 9,000  Level Houston Center
11:30AM 29.9983 -89.6319 65° Northeast 118 136 9,000  Level Houston Center
11:31AM 30.0158 -89.5894 65° Northeast 122 140 9,000  Level Houston Center
11:32AM 30.0286 -89.5536 68° East 122 140 9,000  Level Houston Center
11:33AM 30.0436 -89.5181 64° Northeast 123 142 9,000  Level Houston Center
11:34AM 30.0581 -89.4819 65° Northeast 124 143 9,000  Level Houston Center
11:35AM 30.0714 -89.4464 67° East 123 142 9,000  Level Houston Center
11:36AM 30.0889 -89.4031 65° Northeast 124 143 9,000  Level Houston Center
11:37AM 30.1036 -89.3661 65° Northeast 126 145 9,000  Level Houston Center
11:38AM 30.1183 -89.3294 65° Northeast 127 146 9,000  Level Houston Center
11:39AM 30.1328 -89.2942 65° Northeast 124 143 9,000  Level Houston Center
11:40AM 30.1469 -89.2561 67° East 126 145 9,000  Level Houston Center
11:41AM 30.1636 -89.2122 66° East 125 144 9,000  Level Houston Center
11:42AM 30.1786 -89.1764 64° Northeast 125 144 9,000  Level Houston Center
11:43AM 30.1922 -89.1406 66° East 123 142 9,000  Level Houston Center
11:44AM 30.2061 -89.1047 66° East 123 142 9,000  Level Houston Center
11:45AM 30.2200 -89.0706 65° Northeast 120 138 9,000  Level Houston Center
11:46AM 30.2333 -89.0344 67° East 120 138 9,000  Level Houston Center
11:47AM 30.2511 -88.9917 64° Northeast 123 142 9,000  Level Houston Center
11:48AM 30.2653 -88.9553 66° East 124 143 9,000  Level Houston Center
11:50AM 30.2794 -88.9167 67° East 122 140 9,000  Level Houston Center
11:52AM 30.3064 -88.8469 66° East 119 137 9,000  Level Houston Center
11:53AM 30.3200 -88.8136 65° Northeast 116 133 9,000  Level Houston Center
11:54AM 30.3244 -88.7758 82° East 120 138 9,000  Level Houston Center
11:55AM 30.3242 -88.7350 90° East 126 145 9,000  Level Houston Center
11:56AM 30.3264 -88.6869 87° East 126 145 9,000  Level Houston Center
11:57AM 30.3269 -88.6469 89° East 125 144 9,000  Level Houston Center
11:58AM 30.3281 -88.6075 88° East 124 143 9,000  Level Houston Center
11:59AM 30.3292 -88.5681 88° East 124 143 9,000  Level Houston Center
12:00PM 30.3300 -88.5292 89° East 123 142 9,000  Level Houston Center
12:01PM 30.3319 -88.4811 87° East 124 143 9,000  Level Houston Center
12:02PM 30.3328 -88.4400 89° East 126 145 9,000  Level Houston Center
12:03PM 30.3333 -88.4000 89° East 125 144 9,000  Level Houston Center
12:04PM 30.3344 -88.3603 88° East 124 143 9,000  Level Houston Center
12:05PM 30.3356 -88.3197 88° East 126 145 9,000  Level Houston Center
12:06PM 30.3367 -88.2711 88° East 126 145 9,000  Level Houston Center
12:07PM 30.3367 -88.2308 90° East 126 145 9,000  Level Houston Center
12:08PM 30.3378 -88.1906 88° East 125 144 9,000  Level Houston Center
12:09PM 30.3392 -88.1508 88° East 125 144 9,000  Level Houston Center
12:10PM 30.3406 -88.1106 88° East 125 144 9,000  Level Houston Center
12:11PM 30.3414 -88.0697 89° East 126 145 9,000  Level Houston Center
12:12PM 30.3422 -88.0236 89° East 120 138 9,100  Climbing Houston Center
12:13PM 30.3436 -87.9833 88° East 123 142 9,100  Level Houston Center
12:14PM 30.3436 -87.9442 90° East 122 140 9,100  Level Houston Center
12:15PM 30.3444 -87.9042 89° East 124 143 9,100  Level Houston Center
12:16PM 30.3456 -87.8644 88° East 125 144 9,100  Level Houston Center
12:17PM 30.3464 -87.8169 89° East 124 143 9,100  Level Houston Center
12:19PM 30.3475 -87.7772 88° East 123 142 9,100  Level Houston Center
12:20PM 30.3486 -87.7369 88° East 124 143 9,100  Level Houston Center
12:21PM 30.3489 -87.6961 90° East 126 145 9,100  Level Houston Center
12:22PM 30.3500 -87.6567 88° East 125 144 9,100  Level Houston Center
12:23PM 30.3494 -87.6172 91° East 122 140 9,100  Level Houston Center
12:24PM 30.3511 -87.5683 88° East 125 144 9,100  Level Houston Center
12:25PM 30.3525 -87.5272 88° East 127 146 9,100  Level Houston Center
12:26PM 30.3519 -87.4875 91° East 126 145 9,100  Level Houston Center
12:27PM 30.3522 -87.4467 90° East 127 146 9,100  Level Jacksonville Center
12:28PM 30.3514 -87.4081 91° East 128 147 9,100  Level Jacksonville Center
12:29PM 30.3528 -87.3672 88° East 126 145 9,100  Level Jacksonville Center
12:30PM 30.3542 -87.3286 88° East 126 145 9,100  Level Jacksonville Center
12:31PM 30.3536 -87.2878 91° East 126 145 9,100  Level Jacksonville Center
12:32PM 30.3531 -87.2444 91° East 125 144 9,100  Level Jacksonville Center
12:33PM 30.3564 -87.2061 84° East 126 145 9,100  Level Jacksonville Center
12:34PM 30.3558 -87.1628 91° East 125 144 9,100  Level Jacksonville Center
12:35PM 30.3569 -87.1292 88° East 127 146 9,100  Level Jacksonville Center
12:36PM 30.3583 -87.0833 88° East 127 146 9,100  Level Jacksonville Center
12:37PM 30.3556 -87.0375 94° East 126 145 9,100  Level Jacksonville Center
12:38PM 30.3569 -87.0017 87° East 127 146 9,100  Level Jacksonville Center
12:40PM 30.3536 -86.9276 93° East  Level FlightAware Approximate
12:47PM 30.3164 -86.6368 100° East  Level FlightAware Approximate
12:48PM 30.3098 -86.5955 100° East  Level FlightAware Approximate
12:49PM 30.3032 -86.5542 100° East  Level FlightAware Approximate
12:50PM 30.2966 -86.5129 100° East  Level FlightAware Approximate
12:51PM 30.2901 -86.4717 100° East  Level FlightAware Approximate
12:52PM 30.2834 -86.4304 100° East  Level FlightAware Approximate
12:53PM 30.2768 -86.3891 101° East  Level FlightAware Approximate
12:54PM 30.2702 -86.3478 101° East  Level FlightAware Approximate
12:55PM 30.2635 -86.3066 101° East  Level FlightAware Approximate
12:56PM 30.2569 -86.2653 101° East  Level FlightAware Approximate
12:57PM 30.2502 -86.2241 101° East  Level FlightAware Approximate
12:58PM 30.2435 -86.1829 101° East  Level FlightAware Approximate
12:59PM 30.2368 -86.1416 101° East  Level FlightAware Approximate
01:00PM 30.2362 -86.1005 91° East  Level FlightAware Approximate
01:01PM 30.2356 -86.0593 91° East  Level FlightAware Approximate
01:02PM 30.2349 -86.0182 91° East  Level FlightAware Approximate
01:03PM 30.2343 -85.9771 91° East  Level FlightAware Approximate
01:04PM 30.2337 -85.9360 91° East  Level FlightAware Approximate
01:05PM 30.2302 -85.8931 99° East  Level FlightAware Approximate
01:06PM 30.2248 -85.8524 99° East  Level FlightAware Approximate
01:07PM 30.2194 -85.8118 99° East  Level FlightAware Approximate
01:08PM 30.2140 -85.7711 99° East  Level FlightAware Approximate
01:09PM 30.2086 -85.7305 99° East  Level FlightAware Approximate
01:10PM 30.2031 -85.6898 99° East  Level FlightAware Approximate
01:11PM 30.1966 -85.6495 103° East  Level FlightAware Approximate
01:12PM 30.1885 -85.6094 103° East  Level FlightAware Approximate
01:13PM 30.1805 -85.5694 103° East  Level FlightAware Approximate
01:14PM 30.1604 -85.5354 124° Southeast  Level Estimated
01:15PM 30.1403 -85.5015 124° Southeast  Level Estimated
01:16PM 30.1203 -85.4676 124° Southeast  Level Estimated
01:17PM 30.1002 -85.4337 124° Southeast  Level Estimated
01:18PM 30.0801 -85.3999 124° Southeast  Level Estimated
01:19PM 30.0600 -85.3660 124° Southeast  Level Estimated
01:20PM 30.0399 -85.3322 124° Southeast  Level Estimated
01:21PM 30.0197 -85.2983 124° Southeast  Level Estimated
01:22PM 29.9996 -85.2645 124° Southeast  Level Estimated
01:23PM 29.9795 -85.2307 125° Southeast  Level Estimated
01:24PM 29.9593 -85.1969 125° Southeast  Level Estimated
01:25PM 29.9392 -85.1631 125° Southeast  Level Estimated
01:26PM 29.9190 -85.1294 125° Southeast  Level Estimated
01:27PM 29.8988 -85.0956 125° Southeast  Level Estimated
01:28PM 29.8787 -85.0619 125° Southeast  Level Estimated
01:29PM 29.8585 -85.0282 125° Southeast  Level Estimated
01:30PM 29.8383 -84.9945 125° Southeast  Level Estimated
01:31PM 29.8181 -84.9608 125° Southeast  Level Estimated
01:32PM 29.7978 -84.9271 125° Southeast  Level Estimated
01:33PM 29.7776 -84.8934 125° Southeast  Level Estimated
01:33PM 29.6964 -84.8292 115° Southeast 147 169 9,100  Level Jacksonville Center
01:34PM 29.7574 -84.8598 125° Southeast  Level Estimated
01:34PM 29.6719 -84.8000 134° Southeast 141 162 9,100  Level Jacksonville Center
01:35PM 29.7372 -84.8261 125° Southeast  Level Estimated
01:35PM 29.6472 -84.7686 132° Southeast 141 162 9,100  Level Jacksonville Center
01:36PM 29.7169 -84.7925 125° Southeast  Level Estimated
01:36PM 29.6206 -84.7369 134° Southeast 141 162 9,000  Level Jacksonville Center
01:37PM 29.6966 -84.7589 125° Southeast  Level Estimated
01:37PM 29.5961 -84.7031 130° Southeast 141 162 9,100  Level Jacksonville Center
01:38PM 29.6647 -84.7284 115° Southeast  Level FlightAware Approximate
01:38PM 29.5694 -84.6739 136° Southeast 141 162 9,100  Level Jacksonville Center
01:39PM 29.5447 -84.6400 130° Southeast 141 162 9,100  Level Jacksonville Center
01:40PM 29.5181 -84.6061 132° Southeast 141 162 9,100  Level Jacksonville Center
01:41PM 29.5019 -84.5653 114° Southeast 141 162 9,100  Level Jacksonville Center
01:42PM 29.4878 -84.5244 112° Southeast 136 157 9,100  Level Jacksonville Center
01:43PM 29.4736 -84.4836 112° Southeast 136 157 9,100  Level Jacksonville Center
01:44PM 29.4575 -84.4406 113° Southeast 136 157 9,100  Level Jacksonville Center
01:45PM 29.4433 -84.3997 112° Southeast 136 157 9,100  Level Jacksonville Center
01:46PM 29.4292 -84.3614 113° Southeast 136 157 9,100 -60 Level Jacksonville Center
01:47PM 29.4131 -84.3206 114° Southeast 136 157 9,000  Descending Jacksonville Center
01:48PM 29.3989 -84.2797 112° Southeast 136 157 9,100  Climbing Jacksonville Center
01:49PM 29.3847 -84.2417 113° Southeast 136 157 9,100  Level Jacksonville Center
01:50PM 29.3706 -84.1983 111° Southeast 136 157 9,100  Level Jacksonville Center
01:51PM 29.3564 -84.1600 113° Southeast 136 157 9,100  Level Jacksonville Center
01:52PM 29.3400 -84.1194 115° Southeast 136 157 9,100 -60 Level Jacksonville Center
01:53PM 29.3258 -84.0789 112° Southeast 136 157 9,000 -60 Descending Jacksonville Center
01:54PM 29.3114 -84.0381 112° Southeast 136 157 9,000  Level Jacksonville Center
01:55PM 29.2972 -83.9975 112° Southeast 136 157 9,000  Level Jacksonville Center
01:56PM 29.2831 -83.9592 113° Southeast 136 157 9,000  Level Jacksonville Center
01:57PM 29.2667 -83.9186 115° Southeast 136 157 9,000  Level Jacksonville Center
01:58PM 29.2544 -83.8781 109° East 136 157 9,000 -60 Level Jacksonville Center
01:59PM 29.2400 -83.8372 112° Southeast 136 157 8,900 -60 Descending Jacksonville Center
02:00PM 29.2236 -83.7967 115° Southeast 136 157 8,900  Level Jacksonville Center
02:01PM 29.2094 -83.7561 112° Southeast 136 157 8,900  Level Jacksonville Center
02:02PM 29.1950 -83.7181 113° Southeast 136 157 8,900  Level Jacksonville Center
02:03PM 29.1806 -83.6775 112° Southeast 136 157 8,900  Level Jacksonville Center
02:04PM 29.1661 -83.6369 112° Southeast 136 157 8,900  Level Jacksonville Center
02:05PM 29.1519 -83.5986 113° Southeast 136 157 8,900  Level Jacksonville Center
02:06PM 29.1375 -83.5583 112° Southeast 136 157 8,900  Level Jacksonville Center
02:07PM 29.1231 -83.5178 112° Southeast 136 157 8,900  Level Jacksonville Center
02:08PM 29.1086 -83.4819 115° Southeast 136 157 8,900  Level Jacksonville Center
02:09PM 29.0942 -83.4439 113° Southeast 136 157 8,900  Level Jacksonville Center
02:10PM 29.0797 -83.4033 112° Southeast 136 157 8,900  Level Jacksonville Center
02:11PM 29.0653 -83.3653 113° Southeast 136 157 8,900  Level Jacksonville Center
02:12PM 29.0528 -83.3272 111° Southeast 136 157 8,900  Level Jacksonville Center
02:13PM 29.0406 -83.2917 111° Southeast 136 157 8,900  Level Jacksonville Center
02:14PM 29.0300 -83.2511 107° East 131 151 8,900  Level Jacksonville Center
02:15PM 29.0219 -83.2083 102° East 131 151 8,900  Level Jacksonville Center
02:16PM 29.0136 -83.1656 103° East 131 151 8,900 -60 Level Jacksonville Center
02:17PM 29.0075 -83.1253 100° East 125 144 8,800 -300 Descending Jacksonville Center
02:18PM 28.9908 -83.0872 117° Southeast 125 144 8,300 -600 Descending Jacksonville Center
02:19PM 28.9722 -83.0492 119° Southeast 140 161 7,600 -660 Descending Jacksonville Center
02:19PM 28.9639 -83.0278 114° Southeast 139 160 7,300 -540 Descending Jacksonville Center
02:20PM 28.9575 -83.0089 111° Southeast 135 155 7,100 -480 Descending Jacksonville Center
02:20PM 28.9492 -82.9969 129° Southeast 137 158 6,900 -240 Descending Jacksonville Center
02:21PM 28.9408 -82.9708 110° East 135 155 6,900  Level Jacksonville Center
02:21PM 28.9347 -82.9567 116° Southeast 130 150 6,900  Level Jacksonville Center
02:22PM 28.9264 -82.9353 114° Southeast 135 155 6,900  Level Jacksonville Center
02:22PM 28.9181 -82.9211 124° Southeast 124 143 6,900  Level Jacksonville Center
02:23PM 28.9117 -82.8997 109° East 135 155 6,900  Level Jacksonville Center
02:23PM 28.9033 -82.8856 124° Southeast 125 144 6,900  Level Jacksonville Center
02:24PM 28.8969 -82.8617 107° East 135 155 6,900  Level Jacksonville Center
02:24PM 28.8886 -82.8500 129° Southeast 125 144 6,900  Level Jacksonville Center
02:25PM 28.8803 -82.8261 112° Southeast 135 155 6,900  Level Jacksonville Center
02:25PM 28.8700 -82.8047 119° Southeast 128 147 6,900  Level Jacksonville Center
02:26PM 28.8658 -82.7906 109° East 130 150 6,900  Level Jacksonville Center
02:26PM 28.8572 -82.7694 115° Southeast 126 145 6,900  Level Jacksonville Center
02:27PM 28.8511 -82.7575 120° Southeast 130 150 6,900  Level Jacksonville Center
02:28PM 28.8406 -82.7361 119° Southeast 123 142 6,900  Level Jacksonville Center
02:28PM 28.8344 -82.7219 116° Southeast 130 150 6,900  Level Jacksonville Center
02:29PM 28.8281 -82.6983 107° East 127 146 6,900  Level Jacksonville Center
02:30PM 28.8114 -82.6603 117° Southeast 125 144 6,900  Level Jacksonville Center
02:31PM 28.7944 -82.6225 117° Southeast 124 143 6,900  Level Jacksonville Center
02:32PM 28.7667 -82.5667 120° Southeast 125 144 7,000  Climbing Tampa TRACON
02:33PM 28.7500 -82.5167 111° Southeast 125 144 7,000 -60 Level Tampa TRACON
02:34PM 28.7333 -82.4833 120° Southeast 127 146 6,900  Descending Tampa TRACON
02:35PM 28.7167 -82.4667 139° Southeast 124 143 7,000  Climbing Tampa TRACON
02:36PM 28.6833 -82.4500 156° South 124 143 7,000  Level Tampa TRACON
02:37PM 28.6500 -82.4333 156° South 125 144 7,000  Level Tampa TRACON
02:38PM 28.6167 -82.4167 156° South 124 143 7,000  Level Tampa TRACON
02:39PM 28.5833 -82.4000 156° South 124 143 7,000 -180 Level Tampa TRACON
02:40PM 28.5500 -82.3667 139° Southeast 127 146 6,700 -480 Descending Tampa TRACON
02:41PM 28.5167 -82.3500 156° South 140 161 6,100 -660 Descending Tampa TRACON
02:42PM 28.4833 -82.3333 156° South 145 167 5,500 -780 Descending Tampa TRACON
02:43PM 28.4500 -82.3167 156° South 141 162 4,700 -840 Descending Tampa TRACON
02:44PM 28.4167 -82.2833 139° Southeast 142 163 3,900 -900 Descending Tampa TRACON
02:45PM 28.3833 -82.2667 156° South 137 158 2,900 -480 Descending Tampa TRACON
02:46PM 28.3500 -82.2500 156° South 128 147 3,000  Climbing Tampa TRACON
02:47PM 28.3333 -82.2333 139° Southeast 125 144 3,000  Level Tampa TRACON
02:48PM 28.3000 -82.2167 156° South 120 138 3,000  Level Tampa TRACON
02:49PM 28.2667 -82.1833 139° Southeast 119 137 3,000  Level Tampa TRACON
02:50PM 28.2333 -82.1667 156° South 117 135 3,000  Level Tampa TRACON
02:51PM 28.2000 -82.1500 156° South 117 135 3,000 -60 Level Tampa TRACON
02:52PM 28.1833 -82.1333 139° Southeast 119 137 2,900 -60 Descending Tampa TRACON
02:53PM 28.1500 -82.1167 156° South 122 140 2,900 -240 Level Tampa TRACON
02:54PM 28.1167 -82.1000 156° South 131 151 2,500 -240 Descending Tampa TRACON
02:56PM 28.0833 -82.0667 139° Southeast 123 142 2,500 -60 Level Tampa TRACON
02:56PM 28.0833 -82.0333 90° East 124 143 2,400 -480 Descending Tampa TRACON
02:57PM 28.0500 -82.0000 139° Southeast 128 147 1,700 -660 Descending Tampa TRACON
02:59PM 28.0167 -82.0000 180° South 106 122 1,000 -660 Descending Tampa TRACON
03:01PM 27.9833 -82.0167 156° South  Level FlightAware Approximate
03:08PM 27.9889 -82.0186 156° South  Level Estimated
03:09PM 27.9833 -82.0167 156° South  Level FlightAware Approximate